»·PEaware :: N204PT KMCC-KSFO

N204PT :: KMCC-KSFO

FLIGHT INFORMATION

Flight Status: Arrived
Operator: Privately registered:
United States
More flights under this callsign
Pilot: Mark D. (12)
Aircraft: BEECH AIRCRAFT SUPER KING AIR COMMUTER
(BE20)
More flights by this aircraft type
Origin: KMCC McClellan
United States
Destination: KSFO San Francisco Intl
United States
More flights between these airports :: More routes between these airports
Route: MCC ECA CEDES
File this flight plan on PilotEdge
Remarks: / V /
Altitude:
(Current/Filed)
12,000ft
Speed:
(Current/Filed)
250kts
Departed: 10-Mar-12 01:00 PM
Arrived: 10-Mar-12 01:34 PM
Distance/Time
Traveled:
78nm/0:34
Distance/Time
To Go:
Arrived

Flight Plot

Page will automatically refresh every two minutes.


Map Options




Map Legend


Flown Route
Filed Route
Departure Airport
Arrival Airport
Navaid (VOR, NDB)
Fix

Horizontal Profiles

Position Reports

Time Latitude Longitude Heading Altitude Ground
Speed
10-Mar-12 12:51 38.664554 -121.392626 276 78ft 0kts
10-Mar-12 12:52 38.664555 -121.392644 275 78ft 0kts
10-Mar-12 12:53 38.664557 -121.392663 275 78ft 0kts
10-Mar-12 12:54 38.664558 -121.392681 275 78ft 0kts
10-Mar-12 12:55 38.664560 -121.392697 275 78ft 0kts
10-Mar-12 12:56 38.664560 -121.392706 275 78ft 0kts
10-Mar-12 12:57 38.664511 -121.397453 332 78ft 20kts
10-Mar-12 12:58 38.668574 -121.400261 254 78ft 14kts
10-Mar-12 12:59 38.641762 -121.399559 175 1087ft 131kts
10-Mar-12 13:00 38.602564 -121.393733 166 3052ft 150kts
10-Mar-12 13:01 38.565602 -121.383524 166 4634ft 158kts
10-Mar-12 13:02 38.522453 -121.366618 166 6472ft 164kts
10-Mar-12 13:03 38.482896 -121.350232 166 8100ft 163kts
10-Mar-12 13:04 38.439177 -121.330567 166 9935ft 169kts
10-Mar-12 13:05 38.393937 -121.309554 166 11768ft 175kts
10-Mar-12 13:06 38.341884 -121.284798 166 12151ft 222kts
10-Mar-12 13:07 38.279898 -121.256928 166 12151ft 240kts
10-Mar-12 13:08 38.216161 -121.228563 165 12157ft 246kts
10-Mar-12 13:09 38.151209 -121.201483 166 12149ft 244kts
10-Mar-12 13:10 38.088504 -121.175747 166 12158ft 243kts
10-Mar-12 13:11 38.027252 -121.168514 183 12160ft 238kts
10-Mar-12 13:12 37.960892 -121.170060 184 12160ft 238kts
10-Mar-12 13:13 37.894198 -121.171635 183 12160ft 239kts
10-Mar-12 13:14 37.829439 -121.176890 209 12147ft 235kts
10-Mar-12 13:15 37.792362 -121.228025 232 12000ft 237kts
10-Mar-12 13:16 37.753300 -121.294716 232 11995ft 234kts
10-Mar-12 13:17 37.714335 -121.360815 232 11995ft 233kts
10-Mar-12 13:18 37.687125 -121.406283 231 12000ft 233kts
10-Mar-12 13:19 37.640527 -121.482231 232 11884ft 237kts
10-Mar-12 13:20 37.608021 -121.534710 231 11071ft 257kts
10-Mar-12 13:21 37.567461 -121.598217 231 10099ft 268kts
10-Mar-12 13:22 37.523391 -121.672900 242 8902ft 256kts
10-Mar-12 13:23 37.494370 -121.753829 246 7392ft 250kts
10-Mar-12 13:24 37.468656 -121.834538 258 5888ft 246kts
10-Mar-12 13:25 37.468820 -121.918235 279 5008ft 220kts
10-Mar-12 13:26 37.489614 -121.982914 298 5000ft 187kts
10-Mar-12 13:27 37.515140 -122.042226 292 5006ft 194kts
10-Mar-12 13:28 37.534908 -122.110632 288 4094ft 222kts
10-Mar-12 13:29 37.556436 -122.179212 294 3393ft 197kts
10-Mar-12 13:30 37.576810 -122.240678 292 2354ft 185kts
10-Mar-12 13:31 37.590438 -122.299192 289 1383ft 166kts
10-Mar-12 13:32 37.609796 -122.348408 297 229ft 144kts
10-Mar-12 13:33 37.624290 -122.382483 302 16ft 28kts
10-Mar-12 13:34 37.627896 -122.383897 245 16ft 17kts
10-Mar-12 13:35 37.627679 -122.384586 257 16ft 0kts
10-Mar-12 13:36 37.627678 -122.384594 257 16ft 0kts
10-Mar-12 13:37 37.627677 -122.384597 257 16ft 0kts
10-Mar-12 13:38 37.627676 -122.384601 257 16ft 0kts
10-Mar-12 13:39 37.627676 -122.384605 257 16ft 0kts
10-Mar-12 13:40 37.627675 -122.384609 257 16ft 0kts
10-Mar-12 13:41 37.627675 -122.384612 257 16ft 0kts
10-Mar-12 13:42 37.627674 -122.384616 257 16ft 0kts
10-Mar-12 13:43 37.627673 -122.384620 257 16ft 0kts
10-Mar-12 13:44 37.627673 -122.384624 257 16ft 0kts
10-Mar-12 13:45 37.627672 -122.384627 257 16ft 0kts
10-Mar-12 13:46 37.627671 -122.384631 257 16ft 0kts
10-Mar-12 13:47 37.627671 -122.384635 257 16ft 0kts
10-Mar-12 13:48 37.627670 -122.384638 257 16ft 0kts

Navigation Log

Ident Type
Flight plan parsing failed, navigation log unavailable